GRZ580 Details

Departure: (PAKN)
Arrival: (PANI)
Route: AKN Q51 SLIIM ANI


Current Weather Information
PAKN 251054Z 16004KT 10SM FEW002 06/06 A2986 RMK AO2 SLP112 T00610056
PANI 251056Z AUTO 12003KT 10SM CLR 06/05 A2989 RMK AO2 SLP124 T00610050